Time;durP1;ratioP1;P1;durP2;ratioP2;P2;SDS_P1;SDS_P2;PMS_P1;PMS_P2;Temp;Humidity;BMP_temperature;BMP_pressure;BME280_temperature;BME280_humidity;BME280_pressure;Samples;Min_cycle;Max_cycle;Signal;HPM_P1;HPM_P2
2022/01/23 00:01:48;;;;;;;13.68;10.18;;;;;;;-144.19;100.00;79050.34;6175887;23;20057;-85
2022/01/23 00:04:17;;;;;;;15.50;9.82;;;;;;;-144.19;100.00;79050.34;6175498;23;20100;-85
2022/01/23 00:07:06;;;;;;;;;;;;;;;;;;;;;
2022/01/23 00:09:36;;;;;;;16.02;10.15;;;;;;;-144.19;100.00;79044.44;6176719;23;20073;-85
2022/01/23 00:12:10;;;;;;;15.55;10.32;;;;;;;-144.19;100.00;79044.44;6175354;23;20052;-84
2022/01/23 00:17:25;;;;;;;17.58;10.18;;;;;;;-144.19;100.00;79064.13;6176290;23;20028;-85
2022/01/23 00:19:56;;;;;;;18.85;11.13;;;;;;;-144.19;100.00;79068.06;6176077;23;20018;-85
2022/01/23 00:22:36;;;;;;;17.05;11.50;;;;;;;-144.19;100.00;79068.06;6175060;23;20021;-85
2022/01/23 00:30:43;;;;;;;17.90;10.88;;;;;;;-144.19;100.00;79056.25;6175880;23;20025;-86
2022/01/23 00:33:11;;;;;;;20.35;12.65;;;;;;;-144.19;100.00;79034.59;6175729;23;20029;-84
2022/01/23 00:35:41;;;;;;;20.73;12.82;;;;;;;-144.19;100.00;79056.25;6175495;23;20130;-85
2022/01/23 00:38:10;;;;;;;20.35;12.73;;;;;;;-144.19;100.00;79046.41;6175557;23;20036;-85
2022/01/23 00:40:39;;;;;;;16.35;11.45;;;;;;;-144.19;100.00;79068.06;6176468;23;20035;-86
2022/01/23 00:43:33;;;;;;;18.23;12.63;;;;;;;-144.19;100.00;79064.13;6177400;23;20020;-85
2022/01/23 00:51:55;;;;;;;17.75;11.55;;;;;;;-144.19;100.00;79115.34;6165697;23;20012;-85
2022/01/23 00:54:22;;;;;;;18.60;12.80;;;;;;;-144.19;100.00;79109.44;6177028;23;20021;-83
2022/01/23 00:56:52;;;;;;;19.10;12.50;;;;;;;-144.19;100.00;79117.31;6177854;23;20121;-85
2022/01/23 00:59:20;;;;;;;20.00;12.85;;;;;;;-144.19;100.00;79125.19;6176559;23;20021;-84
2022/01/23 01:01:47;;;;;;;18.95;12.40;;;;;;;-144.19;100.00;79121.25;6176482;23;20048;-84
2022/01/23 01:04:14;;;;;;;19.52;12.30;;;;;;;-144.19;100.00;79131.09;6177362;23;20050;-85
2022/01/23 01:06:41;;;;;;;18.67;12.93;;;;;;;-144.19;100.00;79135.03;6177078;23;20109;-85
2022/01/23 01:09:09;;;;;;;;;;;;;;;-144.19;100.00;79146.84;6176332;23;20036;-84
2022/01/23 01:11:58;;;;;;;21.67;12.57;;;;;;;-144.19;100.00;79150.78;6175479;23;19926;-86
2022/01/23 01:30:08;;;;;;;17.25;10.90;;;;;;;-144.19;100.00;79135.03;6096872;23;20055;-84
2022/01/23 01:31:43;;;;;;;23.50;13.95;;;;;;;-144.19;100.00;79113.38;6177920;23;20048;-85
2022/01/23 01:37:05;;;;;;;20.58;12.70;;;;;;;-144.19;100.00;79107.47;6166203;23;20052;-85
2022/01/23 01:39:42;;;;;;;23.40;14.32;;;;;;;-144.19;100.00;79107.47;6175398;23;20032;-84
2022/01/23 01:42:09;;;;;;;24.10;13.88;;;;;;;-144.19;100.00;79095.66;6175657;23;20026;-83
2022/01/23 01:44:36;;;;;;;21.90;14.75;;;;;;;-144.19;100.00;79101.56;6177648;23;20025;-85
2022/01/23 01:47:07;;;;;;;22.67;15.60;;;;;;;-144.19;100.00;79107.47;6177126;23;20426;-85
2022/01/23 01:49:34;;;;;;;20.90;13.18;;;;;;;-144.19;100.00;79109.44;6177948;23;20074;-85
2022/01/23 01:52:02;;;;;;;;;;;;;;;-144.19;100.00;79097.63;6177315;23;20022;-85
2022/01/23 01:54:33;;;;;;;23.05;13.38;;;;;;;-144.19;100.00;79113.38;6177182;23;19936;-84
2022/01/23 01:57:06;;;;;;;24.35;14.13;;;;;;;-144.19;100.00;79111.41;6164231;23;20052;-86
2022/01/23 02:00:10;;;;;;;21.80;12.80;;;;;;;-144.19;100.00;79105.50;6154832;23;20022;-88
2022/01/23 02:02:49;;;;;;;23.75;13.80;;;;;;;-144.19;100.00;79093.69;6154332;23;20458;-87
2022/01/23 02:11:08;;;;;;;23.30;13.57;;;;;;;-144.19;100.00;79101.56;6034721;23;20635;-87
2022/01/23 02:52:42;;;;;;;20.52;13.77;;;;;;;-144.19;100.00;79123.22;6153882;23;20458;-87
2022/01/23 02:55:09;;;;;;;22.48;14.15;;;;;;;-144.19;100.00;79123.22;6153652;23;20026;-87
2022/01/23 03:00:12;;;;;;;22.63;14.82;;;;;;;-144.19;100.00;79150.78;6153603;23;20021;-87
2022/01/23 03:02:44;;;;;;;28.27;15.63;;;;;;;-144.19;100.00;79146.84;6152174;23;20017;-87
2022/01/23 03:05:24;;;;;;;24.73;15.35;;;;;;;-144.19;100.00;79135.03;6154212;23;20052;-87
2022/01/23 03:10:43;;;;;;;25.23;15.70;;;;;;;-144.19;100.00;79156.72;6154516;23;20385;-87
2022/01/23 03:16:14;;;;;;;22.90;14.98;;;;;;;-144.19;100.00;79168.53;6153875;23;20025;-87
2022/01/23 03:29:51;;;;;;;24.23;14.40;;;;;;;-144.19;100.00;79166.56;6154630;23;20024;-87
2022/01/23 03:32:35;;;;;;;25.90;14.38;;;;;;;-144.19;100.00;79160.66;6152791;23;20032;-87
2022/01/23 03:35:02;;;;;;;27.23;14.85;;;;;;;-144.19;100.00;79154.72;6152912;23;20026;-87
2022/01/23 03:37:28;;;;;;;26.63;15.48;;;;;;;-144.19;100.00;79142.91;6152613;23;20029;-87
2022/01/23 03:39:54;;;;;;;21.10;14.50;;;;;;;-144.19;100.00;79164.59;6152848;23;20017;-86
2022/01/23 03:42:21;;;;;;;27.43;15.93;;;;;;;-144.19;100.00;79172.47;6153921;23;20025;-86
2022/01/23 03:45:05;;;;;;;24.67;14.20;;;;;;;-144.19;100.00;79174.44;6153870;23;20025;-86
2022/01/23 03:47:52;;;;;;;23.60;14.77;;;;;;;-144.19;100.00;79178.38;6152718;23;20350;-86
2022/01/23 03:50:18;;;;;;;26.42;13.88;;;;;;;-144.19;100.00;79168.53;6152315;23;20050;-86
2022/01/23 03:52:45;;;;;;;24.80;13.73;;;;;;;-144.19;100.00;79170.50;6152434;23;20028;-86
2022/01/23 03:55:11;;;;;;;22.40;13.37;;;;;;;-144.19;100.00;79170.50;6152331;23;20359;-87
2022/01/23 03:57:37;;;;;;;22.13;14.80;;;;;;;-144.19;100.00;79166.56;6153575;23;20033;-87
2022/01/23 04:00:05;;;;;;;25.70;14.68;;;;;;;-144.19;100.00;79138.97;6153414;23;20025;-87
2022/01/23 04:02:32;;;;;;;28.02;14.07;;;;;;;-144.19;100.00;79162.63;6151965;23;20025;-87
2022/01/23 04:04:58;;;;;;;27.10;14.52;;;;;;;-144.19;100.00;79156.72;6152494;23;20510;-87
2022/01/23 04:07:28;;;;;;;23.17;14.13;;;;;;;-144.19;100.00;79158.69;6153674;23;20104;-87
2022/01/23 04:09:54;;;;;;;24.42;14.10;;;;;;;-144.19;100.00;79158.69;6152753;23;20018;-87
2022/01/23 04:12:35;;;;;;;28.45;16.20;;;;;;;-144.19;100.00;79158.69;6151615;23;20021;-87
2022/01/23 04:15:21;;;;;;;25.75;15.25;;;;;;;-144.19;100.00;79164.59;6153348;23;20481;-87
2022/01/23 04:20:43;;;;;;;24.20;14.70;;;;;;;-144.19;100.00;79144.88;6154191;23;20028;-87
2022/01/23 04:31:50;;;;;;;28.75;16.52;;;;;;;-144.19;100.00;79115.34;6153311;23;20427;-87
2022/01/23 04:45:33;;;;;;;25.08;15.50;;;;;;;-144.19;100.00;79115.34;6153207;23;20026;-87
2022/01/23 05:06:25;;;;;;;23.70;15.43;;;;;;;-144.19;100.00;79129.13;6154986;23;20022;-86
2022/01/23 05:08:52;;;;;;;23.00;14.73;;;;;;;-144.19;100.00;79119.28;6157845;23;20041;-86
2022/01/23 05:11:22;;;;;;;24.83;13.95;;;;;;;-144.19;100.00;79123.22;6177264;23;20068;-86
2022/01/23 05:13:48;;;;;;;24.73;14.50;;;;;;;-144.19;100.00;79123.22;6151267;23;20025;-88
2022/01/23 05:16:15;;;;;;;27.05;15.27;;;;;;;-144.19;100.00;79115.34;6152721;23;20033;-87
2022/01/23 05:18:41;;;;;;;22.75;14.27;;;;;;;-144.19;100.00;79119.28;6152053;23;20105;-87
2022/01/23 05:21:40;;;;;;;25.90;15.63;;;;;;;-144.19;100.00;79133.06;6151530;23;20025;-87
2022/01/23 05:24:02;;;;;;;20.15;13.77;;;;;;;-144.19;100.00;79135.03;6152045;23;20478;-87
2022/01/23 05:26:28;;;;;;;22.33;14.43;;;;;;;-144.19;100.00;79127.16;6152475;23;20028;-87
2022/01/23 05:28:55;;;;;;;23.57;14.03;;;;;;;-144.19;100.00;79138.97;6151149;23;20022;-87
2022/01/23 05:31:21;;;;;;;21.43;14.23;;;;;;;-144.19;100.00;79138.97;6152811;23;20028;-87
2022/01/23 05:33:48;;;;;;;23.92;14.02;;;;;;;-144.19;100.00;79144.88;6151450;23;20025;-87
2022/01/23 05:36:14;;;;;;;22.93;13.97;;;;;;;-144.19;100.00;79168.53;6152443;23;20026;-87
2022/01/23 05:38:41;;;;;;;24.03;14.33;;;;;;;-144.19;100.00;79166.56;6151131;23;20028;-87
2022/01/23 05:41:07;;;;;;;22.83;13.95;;;;;;;-144.19;100.00;79170.50;6152166;23;20759;-87
2022/01/23 05:43:34;;;;;;;23.67;14.43;;;;;;;-144.19;100.00;79178.38;6152790;23;20025;-87
2022/01/23 05:46:00;;;;;;;22.42;14.05;;;;;;;-144.19;100.00;79174.44;6150922;23;20025;-87
2022/01/23 05:48:27;;;;;;;22.80;15.07;;;;;;;-144.19;100.00;79170.50;6152871;23;20041;-87
2022/01/23 05:50:53;;;;;;;26.57;16.07;;;;;;;-144.19;100.00;79156.72;6153008;23;20237;-87
2022/01/23 05:53:19;;;;;;;23.48;15.90;;;;;;;-144.19;100.00;79150.78;6152854;23;20022;-87
2022/01/23 05:55:46;;;;;;;28.00;16.87;;;;;;;-144.19;100.00;79162.63;6153083;23;20035;-87
2022/01/23 05:58:12;;;;;;;34.13;18.37;;;;;;;-144.19;100.00;79129.13;6150471;23;20488;-87
2022/01/23 06:00:39;;;;;;;26.47;17.93;;;;;;;-144.19;100.00;79156.72;6151546;23;20022;-87
2022/01/23 06:03:05;;;;;;;31.33;17.90;;;;;;;-144.19;100.00;79166.56;6152158;23;20029;-87
2022/01/23 06:05:32;;;;;;;25.73;16.93;;;;;;;-144.19;100.00;79178.38;6152725;23;20458;-87
2022/01/23 06:07:58;;;;;;;27.07;16.63;;;;;;;-144.19;100.00;79154.72;6150702;23;20741;-87
2022/01/23 06:10:27;;;;;;;23.30;15.50;;;;;;;-144.19;100.00;79182.31;6152685;23;20233;-87
2022/01/23 06:12:54;;;;;;;28.55;15.75;;;;;;;-144.19;100.00;79162.63;6151090;23;20028;-87
2022/01/23 06:15:20;;;;;;;26.95;15.02;;;;;;;-144.19;100.00;79166.56;6150999;23;20028;-88
2022/01/23 06:17:47;;;;;;;22.88;14.65;;;;;;;-144.19;100.00;79170.50;6150430;23;20488;-89
2022/01/23 06:20:14;;;;;;;26.45;15.90;;;;;;;-144.19;100.00;79176.41;6152573;23;20035;-87
2022/01/23 06:22:46;;;;;;;21.60;14.82;;;;;;;-144.19;100.00;79184.28;6152456;23;20021;-87
2022/01/23 06:25:14;;;;;;;24.40;16.17;;;;;;;-144.19;100.00;79184.28;6151394;23;20032;-87
2022/01/23 06:27:41;;;;;;;24.17;15.23;;;;;;;-144.19;100.00;79198.06;6151870;23;20028;-88
2022/01/23 06:30:08;;;;;;;24.23;15.05;;;;;;;-144.19;100.00;79188.22;6154288;23;20021;-87
2022/01/23 06:32:37;;;;;;;21.42;14.65;;;;;;;-144.19;100.00;79207.91;6152814;23;20028;-88
2022/01/23 06:35:05;;;;;;;26.52;15.75;;;;;;;-144.19;100.00;79198.06;6155032;23;20028;-84
2022/01/23 06:37:31;;;;;;;;;;;;;;;-144.19;100.00;79221.72;6154787;23;20128;-86
2022/01/23 06:39:57;;;;;;;26.35;17.05;;;;;;;-144.19;100.00;79215.78;6154075;23;19924;-85
2022/01/23 06:42:24;;;;;;;24.53;16.20;;;;;;;-144.19;100.00;79209.88;6153579;23;20031;-85
2022/01/23 06:44:50;;;;;;;45.03;21.47;;;;;;;-144.19;100.00;79217.75;6152819;23;20031;-86
2022/01/23 06:47:18;;;;;;;42.13;22.77;;;;;;;-144.19;100.00;79219.72;6154136;23;20255;-85
2022/01/23 06:49:44;;;;;;;45.47;25.17;;;;;;;-144.19;100.00;79202.00;6156149;23;20022;-86
2022/01/23 06:52:11;;;;;;;46.40;26.57;;;;;;;-144.19;100.00;79194.13;6155353;23;20036;-85
2022/01/23 06:54:37;;;;;;;46.97;24.03;;;;;;;-144.19;100.00;79219.72;6153749;23;20247;-87
2022/01/23 06:57:04;;;;;;;44.10;24.47;;;;;;;-144.19;100.00;79194.13;6155168;23;20029;-86
2022/01/23 06:59:30;;;;;;;38.80;22.13;;;;;;;-144.19;100.00;79190.19;6157424;23;20025;-86
2022/01/23 07:01:57;;;;;;;48.10;27.57;;;;;;;-144.19;100.00;79205.94;6157957;23;20074;-86
2022/01/23 07:04:24;;;;;;;;;;;;;;;-144.19;100.00;79221.72;6156694;23;20021;-86
2022/01/23 07:06:51;;;;;;;43.00;24.95;;;;;;;-144.19;100.00;79223.69;6156572;23;19995;-85
2022/01/23 07:09:18;;;;;;;51.65;28.27;;;;;;;-144.19;100.00;79202.00;6155871;23;20482;-86
2022/01/23 07:11:45;;;;;;;40.17;22.23;;;;;;;-144.19;100.00;79198.06;6158436;23;20021;-86
2022/01/23 07:14:11;;;;;;;40.07;22.10;;;;;;;-144.19;100.00;79209.88;6157042;23;20021;-85
2022/01/23 07:16:38;;;;;;;44.47;23.80;;;;;;;-144.19;100.00;79202.00;6155627;23;20029;-86
2022/01/23 07:19:04;;;;;;;30.27;18.13;;;;;;;-144.19;100.00;79207.91;6158020;23;20044;-86
2022/01/23 07:21:31;;;;;;;28.97;16.30;;;;;;;-144.19;100.00;79225.66;6156856;23;20044;-86
2022/01/23 07:23:57;;;;;;;36.65;20.05;;;;;;;-144.19;100.00;79237.47;6157795;23;20493;-86
2022/01/23 07:26:26;;;;;;;29.60;17.00;;;;;;;-144.19;100.00;79233.53;6157378;23;20021;-85
2022/01/23 07:28:54;;;;;;;25.02;16.35;;;;;;;-144.19;100.00;79217.75;6156316;23;20620;-86
2022/01/23 07:34:02;;;;;;;23.15;14.75;;;;;;;-144.19;100.00;79215.78;6157633;23;20033;-86
2022/01/23 07:36:29;;;;;;;25.35;14.73;;;;;;;-144.19;100.00;79221.72;6159032;23;20081;-86
2022/01/23 07:38:56;;;;;;;21.60;14.03;;;;;;;-144.19;100.00;79241.41;6157851;23;20021;-85
2022/01/23 07:41:23;;;;;;;24.98;14.32;;;;;;;-144.19;100.00;79233.53;6155061;23;20261;-85
2022/01/23 07:43:49;;;;;;;22.57;14.00;;;;;;;-144.19;100.00;79233.53;6154856;23;20036;-85
2022/01/23 07:46:16;;;;;;;22.83;14.27;;;;;;;-144.19;100.00;79229.59;6155596;23;20026;-86
2022/01/23 07:48:43;;;;;;;25.87;14.97;;;;;;;-144.19;100.00;79223.69;6154254;23;20025;-86
2022/01/23 07:51:10;;;;;;;;;;;;;;;-144.19;100.00;79235.50;6154671;23;20307;-87
2022/01/23 07:53:37;;;;;;;22.30;13.02;;;;;;;-144.19;100.00;79229.59;6152604;23;19922;-86
2022/01/23 07:56:03;;;;;;;23.37;14.40;;;;;;;-144.19;100.00;79245.34;6153354;23;20017;-87
2022/01/23 07:58:30;;;;;;;21.70;14.13;;;;;;;-144.19;100.00;79225.66;6152748;23;20022;-88
2022/01/23 08:00:56;;;;;;;23.67;13.73;;;;;;;-144.19;100.00;79229.59;6153361;23;20017;-86
2022/01/23 08:03:23;;;;;;;22.17;13.65;;;;;;;-144.19;100.00;79229.59;6155802;23;20052;-87
2022/01/23 08:05:50;;;;;;;18.88;13.18;;;;;;;-144.19;100.00;79235.50;6156285;23;20025;-86
2022/01/23 08:08:16;;;;;;;19.45;13.63;;;;;;;-144.19;100.00;79241.41;6155313;23;20105;-85
2022/01/23 08:10:43;;;;;;;22.20;14.32;;;;;;;-144.19;100.00;79227.63;6180174;23;20020;-86
2022/01/23 08:13:09;;;;;;;21.63;13.40;;;;;;;-144.19;100.00;79217.75;6152758;23;20022;-88
2022/01/23 08:15:35;;;;;;;21.07;13.07;;;;;;;-144.19;100.00;79233.53;6153285;23;20025;-86
2022/01/23 08:18:04;;;;;;;17.40;12.03;;;;;;;-144.19;100.00;79241.41;6153832;23;20374;-87
2022/01/23 08:20:32;;;;;;;17.17;11.27;;;;;;;-144.19;100.00;79221.72;6153008;23;20265;-87
2022/01/23 08:23:01;;;;;;;16.23;12.05;;;;;;;-144.19;100.00;79219.72;6152921;23;20039;-85
2022/01/23 08:25:29;;;;;;;18.05;11.65;;;;;;;-144.19;100.00;79235.50;6153246;23;20032;-84
2022/01/23 08:27:55;;;;;;;19.42;11.13;;;;;;;-144.19;100.00;79241.41;6154200;23;20021;-85
2022/01/23 08:30:22;;;;;;;15.20;10.57;;;;;;;-144.19;100.00;79249.28;6154939;23;20390;-86
2022/01/23 08:32:49;;;;;;;17.02;10.88;;;;;;;-144.19;100.00;79237.47;6153767;23;20027;-85
2022/01/23 08:35:16;;;;;;;15.45;11.35;;;;;;;-144.19;100.00;79249.28;6154746;23;20027;-85
2022/01/23 08:37:42;;;;;;;16.75;11.25;;;;;;;-144.19;100.00;79237.47;6154487;23;20021;-85
2022/01/23 08:40:21;;;;;;;17.98;10.60;;;;;;;-144.19;100.00;79227.63;6155194;23;20043;-86
2022/01/23 08:42:48;;;;;;;16.63;10.68;;;;;;;-144.19;100.00;79237.47;6151420;23;20026;-86
2022/01/23 08:45:14;;;;;;;15.43;11.05;;;;;;;-144.19;100.00;79237.47;6152571;23;20021;-86
2022/01/23 08:47:41;;;;;;;18.27;11.53;;;;;;;-144.19;100.00;79227.63;6151957;23;20481;-87
2022/01/23 08:50:09;;;;;;;14.80;11.82;;;;;;;-144.19;100.00;79227.63;6154310;23;20021;-84
2022/01/23 08:52:36;;;;;;;17.60;11.25;;;;;;;-144.19;100.00;79233.53;6152342;23;20018;-85
2022/01/23 08:55:03;;;;;;;17.95;11.52;;;;;;;-144.19;100.00;79213.81;6154271;23;20490;-87
2022/01/23 08:57:29;;;;;;;17.88;10.90;;;;;;;-144.19;100.00;79213.81;6154105;23;20057;-87
2022/01/23 09:00:18;;;;;;;15.38;10.15;;;;;;;-144.19;100.00;79217.75;6174400;23;20025;-88
2022/01/23 09:02:44;;;;;;;18.67;11.27;;;;;;;-144.19;100.00;79229.59;6178672;23;20025;-86
2022/01/23 09:05:11;;;;;;;15.93;10.40;;;;;;;-144.19;100.00;79239.44;6154203;23;20030;-87
2022/01/23 09:07:37;;;;;;;17.25;10.52;;;;;;;-144.19;100.00;79215.78;6153867;23;20260;-85
2022/01/23 09:10:04;;;;;;;17.17;10.25;;;;;;;-144.19;100.00;79229.59;6155299;23;20488;-87
2022/01/23 09:12:56;;;;;;;16.48;11.23;;;;;;;-144.19;100.00;79198.06;6153192;23;20021;-85
2022/01/23 09:15:23;;;;;;;14.02;10.48;;;;;;;-144.19;100.00;79205.94;6153880;23;20459;-84
2022/01/23 09:17:49;;;;;;;16.45;10.57;;;;;;;-144.19;100.00;79178.38;6155572;23;20401;-87
2022/01/23 09:20:19;;;;;;;13.80;9.90;;;;;;;-144.19;100.00;79194.13;6153759;23;20023;-85
2022/01/23 09:22:45;;;;;;;17.10;10.40;;;;;;;-144.19;100.00;79217.75;6153977;23;20061;-84
2022/01/23 09:25:15;;;;;;;16.70;10.25;;;;;;;-144.19;100.00;79194.13;6152747;23;20029;-87
2022/01/23 09:27:42;;;;;;;17.58;11.50;;;;;;;-144.19;100.00;79158.69;6178728;23;20022;-85
2022/01/23 09:30:17;;;;;;;14.70;10.52;;;;;;;-144.19;100.00;79146.84;6154203;23;20021;-87
2022/01/23 09:32:44;;;;;;;16.17;9.80;;;;;;;-144.19;100.00;79166.56;6153774;23;20105;-86
2022/01/23 09:35:11;;;;;;;15.18;9.88;;;;;;;-144.19;100.00;79162.63;6154160;23;20454;-87
2022/01/23 09:37:38;;;;;;;20.48;10.07;;;;;;;-144.19;100.00;79203.97;6153492;23;20056;-87
2022/01/23 09:40:05;;;;;;;14.70;9.83;;;;;;;-144.19;100.00;79209.88;6154583;23;20025;-87
2022/01/23 09:42:40;;;;;;;24.00;12.18;;;;;;;-144.19;100.00;79182.31;6153780;23;20857;-88
2022/01/23 09:45:10;;;;;;;14.82;9.60;;;;;;;-144.19;100.00;79170.50;6152291;23;20030;-84
2022/01/23 09:47:38;;;;;;;14.70;9.85;;;;;;;-144.19;100.00;79150.78;6153089;23;20021;-85
2022/01/23 09:50:07;;;;;;;14.80;10.05;;;;;;;-144.19;100.00;79154.72;6151202;23;20025;-89
2022/01/23 09:52:35;;;;;;;14.68;9.57;;;;;;;-144.19;100.00;79160.66;6158840;23;20052;-87
2022/01/23 09:55:09;;;;;;;19.90;11.60;;;;;;;-144.19;100.00;79138.97;6153293;23;20025;-84
2022/01/23 09:57:48;;;;;;;14.95;9.32;;;;;;;-144.19;100.00;79176.41;6151584;23;20497;-88
2022/01/23 10:00:20;;;;;;;15.55;9.45;;;;;;;-144.19;100.00;79158.69;6152671;23;20104;-86
2022/01/23 10:02:47;;;;;;;16.75;9.10;;;;;;;-144.19;100.00;79142.91;6154957;23;20092;-85
2022/01/23 10:05:14;;;;;;;12.68;8.52;;;;;;;-144.19;100.00;79140.94;6156337;23;20037;-85
2022/01/23 10:07:43;;;;;;;12.00;7.63;;;;;;;-144.19;100.00;79138.97;6155616;23;20386;-87
2022/01/23 10:10:16;;;;;;;10.93;8.43;;;;;;;-144.19;100.00;79158.69;6155990;23;20029;-86
2022/01/23 10:12:54;;;;;;;12.25;8.60;;;;;;;-144.19;100.00;79099.59;6155630;23;20403;-88
2022/01/23 10:15:21;;;;;;;;;;;;;;;-144.19;100.00;79111.41;6155660;23;20101;-89
2022/01/23 10:17:48;;;;;;;10.27;6.57;;;;;;;-144.19;100.00;79093.69;6156548;23;19925;-88
2022/01/23 10:20:14;;;;;;;10.35;7.18;;;;;;;-144.19;100.00;79115.34;6155768;23;20021;-86
2022/01/23 10:22:44;;;;;;;13.02;8.10;;;;;;;-144.19;100.00;79068.06;6155634;23;20104;-88
2022/01/23 10:25:15;;;;;;;11.07;7.35;;;;;;;-144.19;100.00;79103.53;6155958;23;20026;-89
2022/01/23 10:28:04;;;;;;;10.18;6.65;;;;;;;-144.19;100.00;79111.41;6157165;23;20357;-86
2022/01/23 10:30:50;;;;;;;12.10;7.15;;;;;;;-144.19;100.00;79075.94;6155624;23;20028;-84
2022/01/23 10:33:34;;;;;;;10.88;7.50;;;;;;;-144.19;100.00;79048.38;6155449;23;20045;-86
2022/01/23 10:36:03;;;;;;;11.27;7.07;;;;;;;-144.19;100.00;79064.13;6155300;23;20032;-83
2022/01/23 10:38:35;;;;;;;10.32;6.88;;;;;;;-144.19;100.00;79062.16;6155622;23;20336;-88
2022/01/23 10:41:42;;;;;;;12.15;6.68;;;;;;;-144.19;100.00;79087.78;6154466;23;20043;-87
2022/01/23 10:50:19;;;;;;;8.97;6.70;;;;;;;-144.19;100.00;79040.50;6156026;23;20029;-84
2022/01/23 10:52:51;;;;;;;10.57;6.55;;;;;;;-144.19;100.00;79050.34;6122589;23;20446;-87
2022/01/23 10:55:20;;;;;;;9.35;6.47;;;;;;;-144.19;100.00;79077.91;6156743;23;20105;-88
2022/01/23 10:57:50;;;;;;;12.13;7.32;;;;;;;-144.19;100.00;79070.03;6154697;23;20104;-85
2022/01/23 11:00:31;;;;;;;10.35;5.93;;;;;;;-144.19;100.00;79064.13;6156325;23;20104;-88
2022/01/23 11:03:00;;;;;;;10.65;6.32;;;;;;;-144.19;100.00;79072.00;6155461;23;20080;-84
2022/01/23 11:05:38;;;;;;;9.82;6.28;;;;;;;-144.19;100.00;79062.16;6154467;23;20025;-86
2022/01/23 11:08:27;;;;;;;12.27;6.63;;;;;;;-144.19;100.00;79020.81;6156776;23;20048;-88
2022/01/23 11:10:58;;;;;;;10.05;6.43;;;;;;;-144.19;100.00;79026.72;6154412;23;20045;-87
2022/01/23 11:19:25;;;;;;;9.02;6.03;;;;;;;-144.19;100.00;79010.94;6156840;23;20028;-87
2022/01/23 11:21:53;;;;;;;9.13;5.57;;;;;;;-144.19;100.00;78999.13;6153818;23;20327;-86
2022/01/23 11:24:21;;;;;;;12.07;6.65;;;;;;;-144.19;100.00;79026.72;6156272;23;20021;-87
2022/01/23 11:26:47;;;;;;;11.48;6.70;;;;;;;-144.19;100.00;79001.09;6155924;23;20021;-87
2022/01/23 11:29:17;;;;;;;16.08;8.52;;;;;;;-144.19;100.00;78985.34;6156008;23;20045;-88
2022/01/23 11:31:45;;;;;;;11.95;6.65;;;;;;;-144.19;100.00;79001.09;6154826;23;20021;-87
2022/01/23 11:34:14;;;;;;;9.90;7.38;;;;;;;-144.19;100.00;79008.97;6154822;23;20025;-87
2022/01/23 11:36:41;;;;;;;13.30;7.03;;;;;;;-144.19;100.00;79008.97;6153653;23;20018;-88
2022/01/23 11:39:13;;;;;;;12.95;7.10;;;;;;;-144.19;100.00;78999.13;6154531;23;20032;-88
2022/01/23 11:53:42;;;;;;;10.88;7.68;;;;;;;-144.19;100.00;78940.03;6157211;23;20021;-87
2022/01/23 11:53:57;;;;;;;11.18;6.97;;;;;;;-144.19;100.00;79003.06;6154930;23;20022;-87
2022/01/23 11:56:31;;;;;;;12.40;7.55;;;;;;;-144.19;100.00;78977.47;6153395;23;20093;-85
2022/01/23 11:59:28;;;;;;;10.65;6.97;;;;;;;-144.19;100.00;78967.63;6154246;23;20017;-88
2022/01/23 12:02:14;;;;;;;9.43;6.15;;;;;;;-144.19;100.00;78983.38;6153601;23;20013;-86
2022/01/23 12:04:43;;;;;;;10.60;6.78;;;;;;;-144.19;100.00;78973.53;6154381;23;20348;-86
2022/01/23 12:07:10;;;;;;;9.38;6.43;;;;;;;-144.19;100.00;78975.50;6152994;23;20482;-86
2022/01/23 12:09:43;;;;;;;9.82;6.18;;;;;;;-144.19;100.00;78977.47;6154086;23;20025;-88
2022/01/23 12:12:34;;;;;;;11.00;6.55;;;;;;;-144.19;100.00;78947.94;6152770;23;20022;-86
2022/01/23 12:18:22;;;;;;;11.52;6.57;;;;;;;-144.19;100.00;78971.56;6155421;23;20049;-87
2022/01/23 12:20:51;;;;;;;10.18;6.72;;;;;;;-144.19;100.00;78971.56;6154061;23;20039;-87
2022/01/23 12:23:18;;;;;;;6.82;5.28;;;;;;;-144.19;100.00;78940.03;6153403;23;20025;-86
2022/01/23 12:25:46;;;;;;;;;;;;;;;-144.19;100.00;78912.47;6154446;23;20022;-86
2022/01/23 12:28:28;;;;;;;9.18;4.80;;;;;;;-144.19;100.00;78918.38;6153191;23;19984;-85
2022/01/23 12:31:00;;;;;;;6.35;4.47;;;;;;;-144.19;100.00;78910.50;6153527;23;20100;-88
2022/01/23 12:33:43;;;;;;;9.68;4.60;;;;;;;-144.19;100.00;78926.25;6154170;23;20021;-86
2022/01/23 12:36:15;;;;;;;6.28;3.90;;;;;;;-144.19;100.00;78938.06;6154158;23;20028;-86
2022/01/23 12:38:49;;;;;;;6.63;4.00;;;;;;;-144.19;100.00;78930.19;6152093;23;20025;-86
2022/01/23 12:41:22;;;;;;;5.88;4.50;;;;;;;-144.19;100.00;78902.63;6154050;23;20636;-86
2022/01/23 12:43:51;;;;;;;6.82;4.28;;;;;;;-144.19;100.00;78896.72;6151099;23;20335;-84
2022/01/23 12:46:27;;;;;;;6.25;4.25;;;;;;;-144.19;100.00;78902.63;6150752;23;20022;-83
2022/01/23 12:48:55;;;;;;;7.28;4.60;;;;;;;-144.19;100.00;78879.00;6152444;23;20021;-86
2022/01/23 12:51:21;;;;;;;;;;;;;;;-144.19;100.00;78886.88;6155164;23;20067;-84
2022/01/23 12:53:47;;;;;;;6.80;4.65;;;;;;;-144.19;100.00;78843.53;6153984;23;19916;-85
2022/01/23 12:56:29;;;;;;;11.75;7.32;;;;;;;-144.19;100.00;78871.13;6154762;23;20128;-86
2022/01/23 12:59:05;;;;;;;6.13;4.18;;;;;;;-144.19;100.00;78855.34;6155623;23;20021;-85
2022/01/23 13:01:31;;;;;;;7.72;4.50;;;;;;;-144.19;100.00;78869.13;6156512;23;20027;-89
2022/01/23 13:04:04;;;;;;;7.43;3.92;;;;;;;-144.19;100.00;78898.69;6156679;23;20480;-88
2022/01/23 13:06:54;;;;;;;8.05;4.93;;;;;;;-144.19;100.00;78879.00;6155618;23;20476;-87
2022/01/23 13:10:09;;;;;;;8.50;5.13;;;;;;;-144.19;100.00;78890.81;6156416;23;20017;-89
2022/01/23 13:15:19;;;;;;;7.50;4.47;;;;;;;-144.19;100.00;78875.06;6154724;23;20029;-88
2022/01/23 13:17:56;;;;;;;6.55;4.50;;;;;;;-144.19;100.00;78873.09;6154955;23;20101;-87
2022/01/23 13:26:36;;;;;;;7.53;4.28;;;;;;;-144.19;100.00;78886.88;6156643;23;20017;-88
2022/01/23 13:31:50;;;;;;;7.38;4.18;;;;;;;-144.19;100.00;78890.81;6156482;23;20338;-89
2022/01/23 13:34:36;;;;;;;8.82;4.60;;;;;;;-144.19;100.00;78914.44;6156227;23;20030;-87
2022/01/23 13:37:14;;;;;;;5.63;2.78;;;;;;;-144.19;100.00;78882.94;6155201;23;20415;-86
2022/01/23 13:39:52;;;;;;;5.50;3.70;;;;;;;-144.19;100.00;78879.00;6156448;23;20472;-89
2022/01/23 13:53:28;;;;;;;5.60;4.03;;;;;;;-144.19;100.00;78863.22;6157385;23;20017;-87
2022/01/23 13:58:42;;;;;;;7.25;4.80;;;;;;;-144.19;100.00;78910.50;6176363;23;20045;-90
2022/01/23 14:01:49;;;;;;;7.05;4.65;;;;;;;-144.19;100.00;78908.53;6183137;23;20017;-89
2022/01/23 14:04:02;;;;;;;8.13;5.05;;;;;;;-144.19;100.00;78904.59;6184165;23;20057;-89
2022/01/23 14:06:29;;;;;;;5.47;4.13;;;;;;;-144.19;100.00;78890.81;6184701;23;20017;-89
2022/01/23 14:09:01;;;;;;;6.63;4.50;;;;;;;-144.19;100.00;78916.41;6184789;23;20047;-89
2022/01/23 14:11:28;;;;;;;7.72;4.82;;;;;;;-144.19;100.00;78910.50;6185432;23;20461;-90
2022/01/23 14:14:15;;;;;;;6.95;4.63;;;;;;;-144.19;100.00;78916.41;6184424;23;20025;-90
2022/01/23 14:16:43;;;;;;;8.27;4.38;;;;;;;-144.19;100.00;78926.25;6185911;23;20103;-90
2022/01/23 14:19:23;;;;;;;11.32;6.10;;;;;;;-144.19;100.00;78940.03;6183964;23;20018;-90
2022/01/23 14:21:53;;;;;;;4.70;2.38;;;;;;;-144.19;100.00;78947.94;6183017;23;20017;-90
2022/01/23 14:24:29;;;;;;;3.60;1.85;;;;;;;-144.19;100.00;78961.72;6182799;23;20020;-90
2022/01/23 14:26:59;;;;;;;2.88;1.60;;;;;;;-144.19;100.00;78945.94;6185508;23;20021;-90
2022/01/23 14:29:29;;;;;;;4.22;1.58;;;;;;;-144.19;100.00;78942.00;6184378;23;20027;-90